Time;durP1;ratioP1;P1;durP2;ratioP2;P2;SDS_P1;SDS_P2;PMS_P1;PMS_P2;Temp;Humidity;BMP_temperature;BMP_pressure;BME280_temperature;BME280_humidity;BME280_pressure;Samples;Min_cycle;Max_cycle;Signal;HPM_P1;HPM_P2
2023/03/22 00:00:19;;;;;;;;;;;;;;;;;;1866144;29;7478;-65
2023/03/22 00:01:20;;;;;;;;;;;;;;;;;;1866476;29;7448;-65
2023/03/22 00:02:17;;;;;;;;;;;;;;;;;;1861263;29;7140;-65
2023/03/22 00:03:15;;;;;;;;;;;;;;;;;;1861287;29;7039;-63
2023/03/22 00:04:13;;;;;;;;;;;;;;;;;;1866347;29;8036;-64
2023/03/22 00:05:10;;;;;;;;;;;;;;;;;;1863772;29;7125;-64
2023/03/22 00:06:07;;;;;;;;;;;;;;;;;;1865599;29;7158;-64
2023/03/22 00:07:05;;;;;;;;;;;;;;;;;;1866052;29;9056;-64
2023/03/22 00:08:05;;;;;;;;;;;;;;;;;;1867417;29;7062;-64
2023/03/22 00:09:03;;;;;;;;;;;;;;;;;;1865559;29;8082;-65
2023/03/22 00:10:00;;;;;;;;;;;;;;;;;;1864968;29;7009;-64
2023/03/22 00:10:58;;;;;;;;;;;;;;;;;;1862388;29;7133;-65
2023/03/22 00:11:55;;;;;;;;;;;;;;;;;;1867017;29;7006;-64
2023/03/22 00:12:52;;;;;;;;;;;;;;;;;;1862628;29;7093;-64
2023/03/22 00:13:51;;;;;;;;;;;;;;;;;;1864572;29;8050;-64
2023/03/22 00:14:48;;;;;;;;;;;;;;;;;;1864858;29;7096;-65
2023/03/22 00:15:47;;;;;;;;;;;;;;;;;;1862943;29;8052;-65
2023/03/22 00:16:46;;;;;;;;;;;;;;;;;;1863011;29;7034;-66
2023/03/22 00:17:44;;;;;;;;;;;;;;;;;;1866252;29;7042;-64
2023/03/22 00:18:41;;;;;;;;;;;;;;;;;;1868137;29;7097;-63
2023/03/22 00:19:41;;;;;;;;;;;;;;;;;;1862226;29;7105;-64
2023/03/22 00:20:39;;;;;;;;;;;;;;;;;;1864810;29;7035;-65
2023/03/22 00:21:36;;;;;;;;;;;;;;;;;;1866501;29;7129;-64
2023/03/22 00:22:34;;;;;;;;;;;;;;;;;;1859505;29;7058;-65
2023/03/22 00:23:31;;;;;;;;;;;;;;;;;;1858793;29;7046;-63
2023/03/22 00:24:29;;;;;;;;;;;;;;;;;;1858216;29;7006;-64
2023/03/22 00:25:26;;;;;;;;;;;;;;;;;;1860606;29;7069;-64
2023/03/22 00:26:23;;;;;;;;;;;;;;;;;;1862246;29;7156;-64
2023/03/22 00:27:21;;;;;;;;;;;;;;;;;;1864407;29;8126;-64
2023/03/22 00:28:18;;;;;;;;;;;;;;;;;;1865323;29;7030;-66
2023/03/22 00:29:16;;;;;;;;;;;;;;;;;;1860495;29;7342;-63
2023/03/22 00:30:14;;;;;;;;;;;;;;;;;;1867682;29;7312;-63
2023/03/22 00:31:12;;;;;;;;;;;;;;;;;;1862646;29;8201;-64
2023/03/22 00:32:09;;;;;;;;;;;;;;;;;;1862219;29;8012;-64
2023/03/22 00:33:06;;;;;;;;;;;;;;;;;;1863835;29;7007;-65
2023/03/22 00:34:04;;;;;;;;;;;;;;;;;;1862400;29;7010;-64
2023/03/22 00:35:02;;;;;;;;;;;;;;;;;;1863509;29;7110;-64
2023/03/22 00:36:01;;;;;;;;;;;;;;;;;;1862705;29;7034;-63
2023/03/22 00:36:59;;;;;;;;;;;;;;;;;;1865459;29;7030;-64
2023/03/22 00:37:56;;;;;;;;;;;;;;;;;;1866597;29;8055;-65
2023/03/22 00:38:53;;;;;;;;;;;;;;;;;;1865517;29;7022;-65
2023/03/22 00:39:51;;;;;;;;;;;;;;;;;;1859637;29;7018;-64
2023/03/22 00:40:48;;;;;;;;;;;;;;;;;;1864496;29;10129;-65
2023/03/22 00:41:46;;;;;;;;;;;;;;;;;;1866234;29;7108;-64
2023/03/22 00:42:44;;;;;;;;;;;;;;;;;;1864803;29;7010;-65
2023/03/22 00:43:42;;;;;;;;;;;;;;;;;;1863702;29;7006;-63
2023/03/22 00:44:39;;;;;;;;;;;;;;;;;;1865744;29;7105;-63
2023/03/22 00:45:39;;;;;;;;;;;;;;;;;;1865317;29;7026;-65
2023/03/22 00:46:36;;;;;;;;;;;;;;;;;;1863805;29;7042;-64
2023/03/22 00:47:34;;;;;;;;;;;;;;;;;;1863161;29;7034;-64
2023/03/22 00:48:31;;;;;;;;;;;;;;;;;;1861019;29;7113;-65
2023/03/22 00:49:30;;;;;;;;;;;;;;;;;;1860774;29;7992;-63
2023/03/22 00:50:27;;;;;;;;;;;;;;;;;;1860884;29;8003;-64
2023/03/22 00:51:24;;;;;;;;;;;;;;;;;;1863945;29;7018;-63
2023/03/22 00:52:22;;;;;;;;;;;;;;;;;;1864862;29;7007;-63
2023/03/22 00:53:19;;;;;;;;;;;;;;;;;;1859986;29;9015;-63
2023/03/22 00:54:16;;;;;;;;;;;;;;;;;;1863713;29;9008;-64
2023/03/22 00:55:14;;;;;;;;;;;;;;;;;;1861418;29;7121;-64
2023/03/22 00:56:14;;;;;;;;;;;;;;;;;;1860807;29;7010;-63
2023/03/22 00:57:13;;;;;;;;;;;;;;;;;;1863706;29;7185;-64
2023/03/22 00:58:10;;;;;;;;;;;;;;;;;;1866010;29;7321;-65
2023/03/22 00:59:08;;;;;;;;;;;;;;;;;;1862862;29;7059;-66
2023/03/22 01:00:12;;;;;;;;;;;;;;;;;;1860805;29;7097;-64
2023/03/22 01:01:13;;;;;;;;;;;;;;;;;;1861267;29;7130;-66
2023/03/22 01:02:14;;;;;;;;;;;;;;;;;;1861943;29;7121;-65
2023/03/22 01:03:14;;;;;;;;;;;;;;;;;;1865507;29;7136;-63
2023/03/22 01:04:16;;;;;;;;;;;;;;;;;;1864566;29;7029;-65
2023/03/22 01:05:14;;;;;;;;;;;;;;;;;;1863290;29;7047;-64
2023/03/22 01:06:12;;;;;;;;;;;;;;;;;;1863286;29;7038;-65
2023/03/22 01:07:09;;;;;;;;;;;;;;;;;;1864222;29;7043;-64
2023/03/22 01:08:09;;;;;;;;;;;;;;;;;;1862564;29;7010;-65
2023/03/22 01:09:06;;;;;;;;;;;;;;;;;;1865355;29;7093;-64
2023/03/22 01:10:05;;;;;;;;;;;;;;;;;;1860389;29;7006;-64
2023/03/22 01:11:02;;;;;;;;;;;;;;;;;;1866534;29;7333;-63
2023/03/22 01:12:00;;;;;;;;;;;;;;;;;;1860258;29;7241;-65
2023/03/22 01:12:58;;;;;;;;;;;;;;;;;;1852627;29;7273;-64
2023/03/22 01:13:56;;;;;;;;;;;;;;;;;;1857891;29;7047;-64
2023/03/22 01:14:53;;;;;;;;;;;;;;;;;;1865903;29;8060;-64
2023/03/22 01:15:51;;;;;;;;;;;;;;;;;;1861445;29;7375;-64
2023/03/22 01:16:48;;;;;;;;;;;;;;;;;;1859957;29;7026;-65
2023/03/22 01:17:45;;;;;;;;;;;;;;;;;;1861853;29;7101;-63
2023/03/22 01:18:43;;;;;;;;;;;;;;;;;;1862583;29;7043;-64
2023/03/22 01:19:41;;;;;;;;;;;;;;;;;;1865267;29;8095;-64
2023/03/22 01:20:38;;;;;;;;;;;;;;;;;;1863876;29;7376;-66
2023/03/22 01:21:35;;;;;;;;;;;;;;;;;;1866075;29;7010;-65
2023/03/22 01:22:33;;;;;;;;;;;;;;;;;;1862197;29;8104;-65
2023/03/22 01:23:30;;;;;;;;;;;;;;;;;;1863888;29;7305;-63
2023/03/22 01:24:28;;;;;;;;;;;;;;;;;;1861623;29;7922;-65
2023/03/22 01:25:26;;;;;;;;;;;;;;;;;;1866004;29;7050;-65
2023/03/22 01:26:23;;;;;;;;;;;;;;;;;;1863858;29;7090;-65
2023/03/22 01:27:20;;;;;;;;;;;;;;;;;;1867163;29;7134;-64
2023/03/22 01:28:18;;;;;;;;;;;;;;;;;;1860565;29;7003;-63
2023/03/22 01:29:15;;;;;;;;;;;;;;;;;;1865262;29;7006;-64
2023/03/22 01:30:13;;;;;;;;;;;;;;;;;;1865993;29;7181;-63
2023/03/22 01:31:11;;;;;;;;;;;;;;;;;;1860038;29;7010;-63
2023/03/22 01:32:08;;;;;;;;;;;;;;;;;;1859650;29;7042;-63
2023/03/22 01:33:06;;;;;;;;;;;;;;;;;;1862906;29;8032;-66
2023/03/22 01:34:04;;;;;;;;;;;;;;;;;;1863222;29;7097;-64
2023/03/22 01:35:01;;;;;;;;;;;;;;;;;;1867133;29;8015;-64
2023/03/22 01:35:59;;;;;;;;;;;;;;;;;;1863552;29;7010;-64
2023/03/22 01:36:56;;;;;;;;;;;;;;;;;;1867281;29;8000;-64
2023/03/22 01:37:54;;;;;;;;;;;;;;;;;;1865566;29;7014;-63
2023/03/22 01:38:51;;;;;;;;;;;;;;;;;;1865653;29;8040;-65
2023/03/22 01:39:48;;;;;;;;;;;;;;;;;;1864929;29;7010;-64
2023/03/22 01:40:46;;;;;;;;;;;;;;;;;;1860102;29;7122;-65
2023/03/22 01:41:43;;;;;;;;;;;;;;;;;;1862982;29;7029;-63
2023/03/22 01:42:41;;;;;;;;;;;;;;;;;;1864977;29;7097;-65
2023/03/22 01:43:38;;;;;;;;;;;;;;;;;;1861572;29;7014;-65
2023/03/22 01:44:35;;;;;;;;;;;;;;;;;;1864679;29;8208;-65
2023/03/22 01:45:36;;;;;;;;;;;;;;;;;;1863584;29;7092;-65
2023/03/22 01:46:33;;;;;;;;;;;;;;;;;;1867119;29;7010;-63
2023/03/22 01:47:33;;;;;;;;;;;;;;;;;;1862629;29;7013;-64
2023/03/22 01:48:34;;;;;;;;;;;;;;;;;;1855747;29;7192;-66
2023/03/22 01:49:33;;;;;;;;;;;;;;;;;;1854087;29;7010;-63
2023/03/22 01:50:31;;;;;;;;;;;;;;;;;;1860457;29;7018;-64
2023/03/22 01:51:29;;;;;;;;;;;;;;;;;;1860321;29;7294;-64
2023/03/22 01:52:26;;;;;;;;;;;;;;;;;;1862357;29;7121;-65
2023/03/22 01:53:25;;;;;;;;;;;;;;;;;;1866464;29;7014;-66
2023/03/22 01:54:41;;;;;;;;;;;;;;;;;;1862953;29;7333;-65
2023/03/22 01:55:40;;;;;;;;;;;;;;;;;;1865899;29;7030;-65
2023/03/22 01:56:39;;;;;;;;;;;;;;;;;;1863719;29;7009;-66
2023/03/22 01:57:38;;;;;;;;;;;;;;;;;;1860146;29;7113;-63
2023/03/22 01:58:36;;;;;;;;;;;;;;;;;;1862131;29;7046;-65
2023/03/22 01:59:34;;;;;;;;;;;;;;;;;;1862031;29;7428;-65
2023/03/22 02:00:32;;;;;;;;;;;;;;;;;;1863196;29;7042;-63
2023/03/22 02:01:31;;;;;;;;;;;;;;;;;;1861858;29;7054;-64
2023/03/22 02:02:29;;;;;;;;;;;;;;;;;;1862658;29;7014;-65
2023/03/22 02:03:37;;;;;;;;;;;;;;;;;;1864953;29;7010;-63
2023/03/22 02:04:37;;;;;;;;;;;;;;;;;;1863560;29;8067;-64
2023/03/22 02:05:35;;;;;;;;;;;;;;;;;;1860915;29;7050;-65
2023/03/22 02:06:36;;;;;;;;;;;;;;;;;;1866215;29;7301;-64
2023/03/22 02:07:36;;;;;;;;;;;;;;;;;;1867567;29;7746;-65
2023/03/22 02:08:34;;;;;;;;;;;;;;;;;;1865255;29;7038;-64
2023/03/22 02:09:31;;;;;;;;;;;;;;;;;;1865242;29;7039;-64
2023/03/22 02:10:28;;;;;;;;;;;;;;;;;;1864574;29;7093;-65
2023/03/22 02:11:44;;;;;;;;;;;;;;;;;;1859195;29;7002;-64
2023/03/22 02:12:47;;;;;;;;;;;;;;;;;;1859467;29;7047;-65
2023/03/22 02:13:55;;;;;;;;;;;;;;;;;;1865057;29;7033;-63
2023/03/22 02:15:13;;;;;;;;;;;;;;;;;;1863907;29;7010;-64
2023/03/22 02:16:25;;;;;;;;;;;;;;;;;;1854010;29;7094;-64
2023/03/22 02:17:26;;;;;;;;;;;;;;;;;;1864240;29;7093;-65
2023/03/22 02:18:37;;;;;;;;;;;;;;;;;;1867026;29;7014;-64
2023/03/22 02:19:41;;;;;;;;;;;;;;;;;;1864021;29;7148;-65
2023/03/22 02:20:56;;;;;;;;;;;;;;;;;;1864384;29;8072;-64
2023/03/22 02:22:13;;;;;;;;;;;;;;;;;;1865670;29;7125;-64
2023/03/22 02:23:25;;;;;;;;;;;;;;;;;;1860430;29;7378;-65
2023/03/22 02:24:25;;;;;;;;;;;;;;;;;;1859181;29;7026;-66
2023/03/22 02:25:29;;;;;;;;;;;;;;;;;;1856613;29;7314;-64
2023/03/22 02:26:45;;;;;;;;;;;;;;;;;;1859839;29;7275;-65
2023/03/22 02:27:55;;;;;;;;;;;;;;;;;;1855547;29;7149;-65
2023/03/22 02:28:55;;;;;;;;;;;;;;;;;;1855842;29;8042;-65
2023/03/22 02:30:11;;;;;;;;;;;;;;;;;;1853065;29;7500;-63
2023/03/22 02:31:26;;;;;;;;;;;;;;;;;;1853822;29;7010;-65
2023/03/22 02:32:27;;;;;;;;;;;;;;;;;;1858480;29;7253;-64
2023/03/22 02:33:40;;;;;;;;;;;;;;;;;;1858856;29;7141;-65
2023/03/22 02:34:43;;;;;;;;;;;;;;;;;;1858164;29;7014;-64
2023/03/22 02:35:46;;;;;;;;;;;;;;;;;;1855796;29;7073;-64
2023/03/22 02:37:02;;;;;;;;;;;;;;;;;;1856485;29;7026;-63
2023/03/22 02:38:02;;;;;;;;;;;;;;;;;;1858990;29;7340;-66
2023/03/22 02:39:11;;;;;;;;;;;;;;;;;;1857631;29;7109;-64
2023/03/22 02:40:17;;;;;;;;;;;;;;;;;;1857151;29;7101;-65
2023/03/22 02:41:23;;;;;;;;;;;;;;;;;;1854504;29;7152;-64
2023/03/22 02:42:23;;;;;;;;;;;;;;;;;;1854406;29;7097;-65
2023/03/22 02:43:37;;;;;;;;;;;;;;;;;;1854249;29;7847;-65
2023/03/22 02:44:35;;;;;;;;;;;;;;;;;;1854365;29;9042;-64
2023/03/22 02:45:40;;;;;;;;;;;;;;;;;;1860263;29;8108;-63
2023/03/22 02:46:47;;;;;;;;;;;;;;;;;;1857499;29;7093;-64
2023/03/22 02:47:53;;;;;;;;;;;;;;;;;;1854319;29;7006;-64
2023/03/22 02:48:51;;;;;;;;;;;;;;;;;;1856384;29;7002;-63
2023/03/22 02:49:56;;;;;;;;;;;;;;;;;;1860537;29;8027;-65
2023/03/22 02:50:56;;;;;;;;;;;;;;;;;;1855448;29;7006;-65
2023/03/22 02:52:05;;;;;;;;;;;;;;;;;;1857320;29;7093;-64
2023/03/22 02:53:08;;;;;;;;;;;;;;;;;;1859935;29;7097;-64
2023/03/22 02:54:11;;;;;;;;;;;;;;;;;;1855573;29;7046;-63
2023/03/22 02:55:34;;;;;;;;;;;;;;;;;;1857430;29;7106;-63
2023/03/22 02:56:38;;;;;;;;;;;;;;;;;;1841567;29;8013;-65
2023/03/22 02:57:40;;;;;;;;;;;;;;;;;;1857241;29;8150;-66
2023/03/22 02:58:44;;;;;;;;;;;;;;;;;;1859148;29;7093;-65
2023/03/22 02:59:42;;;;;;;;;;;;;;;;;;1854849;29;7010;-65
2023/03/22 03:00:40;;;;;;;;;;;;;;;;;;1857739;29;7038;-66
2023/03/22 03:01:42;;;;;;;;;;;;;;;;;;1857495;29;7106;-64
2023/03/22 03:02:46;;;;;;;;;;;;;;;;;;1854248;29;7110;-63
2023/03/22 03:03:47;;;;;;;;;;;;;;;;;;1857465;29;8036;-63
2023/03/22 03:04:48;;;;;;;;;;;;;;;;;;1859260;29;7002;-64
2023/03/22 03:05:53;;;;;;;;;;;;;;;;;;1851707;29;7125;-64
2023/03/22 03:06:53;;;;;;;;;;;;;;;;;;1851953;29;7014;-65
2023/03/22 03:07:56;;;;;;;;;;;;;;;;;;1860452;29;8034;-65
2023/03/22 03:08:56;;;;;;;;;;;;;;;;;;1853925;29;7135;-64
2023/03/22 03:09:55;;;;;;;;;;;;;;;;;;1854737;29;7122;-64
2023/03/22 03:10:53;;;;;;;;;;;;;;;;;;1858750;29;7030;-64
2023/03/22 03:11:52;;;;;;;;;;;;;;;;;;1859264;29;7121;-63
2023/03/22 03:12:49;;;;;;;;;;;;;;;;;;1859317;29;7146;-64
2023/03/22 03:13:47;;;;;;;;;;;;;;;;;;1856743;29;7097;-64
2023/03/22 03:14:45;;;;;;;;;;;;;;;;;;1857028;29;7093;-65
2023/03/22 03:15:45;;;;;;;;;;;;;;;;;;1856376;29;7006;-64
2023/03/22 03:16:42;;;;;;;;;;;;;;;;;;1858882;29;7310;-64
2023/03/22 03:17:40;;;;;;;;;;;;;;;;;;1858082;29;8025;-64
2023/03/22 03:18:37;;;;;;;;;;;;;;;;;;1856440;29;7326;-63
2023/03/22 03:19:37;;;;;;;;;;;;;;;;;;1860611;29;8041;-65
2023/03/22 03:20:48;;;;;;;;;;;;;;;;;;1856532;29;7101;-65
2023/03/22 03:21:51;;;;;;;;;;;;;;;;;;1855186;29;7093;-65
2023/03/22 03:22:56;;;;;;;;;;;;;;;;;;1860245;29;7093;-65
2023/03/22 03:23:54;;;;;;;;;;;;;;;;;;1864980;29;7116;-66
2023/03/22 03:25:10;;;;;;;;;;;;;;;;;;1861020;29;8110;-66
2023/03/22 03:26:28;;;;;;;;;;;;;;;;;;1861439;29;8206;-64
2023/03/22 03:27:49;;;;;;;;;;;;;;;;;;1867787;29;7226;-64
2023/03/22 03:28:56;;;;;;;;;;;;;;;;;;1866995;29;7042;-64
2023/03/22 03:30:05;;;;;;;;;;;;;;;;;;1868033;29;7010;-65
2023/03/22 03:31:08;;;;;;;;;;;;;;;;;;1867515;29;7010;-63
2023/03/22 03:32:15;;;;;;;;;;;;;;;;;;1867142;29;7063;-64
2023/03/22 03:33:17;;;;;;;;;;;;;;;;;;1868336;29;7136;-64
2023/03/22 03:34:23;;;;;;;;;;;;;;;;;;1867668;29;7126;-64
2023/03/22 03:35:31;;;;;;;;;;;;;;;;;;1868717;29;7127;-65
2023/03/22 03:36:32;;;;;;;;;;;;;;;;;;1866925;29;7017;-64
2023/03/22 03:37:29;;;;;;;;;;;;;;;;;;1867638;29;7005;-63
2023/03/22 03:38:30;;;;;;;;;;;;;;;;;;1868151;29;7006;-65
2023/03/22 03:39:31;;;;;;;;;;;;;;;;;;1868477;29;8043;-65
2023/03/22 03:40:31;;;;;;;;;;;;;;;;;;1868146;29;7038;-65
2023/03/22 03:41:30;;;;;;;;;;;;;;;;;;1868133;29;8002;-65
2023/03/22 03:42:29;;;;;;;;;;;;;;;;;;1868041;29;7155;-65
2023/03/22 03:43:26;;;;;;;;;;;;;;;;;;1867212;29;7042;-64
2023/03/22 03:44:25;;;;;;;;;;;;;;;;;;1867962;29;7018;-64
2023/03/22 03:45:23;;;;;;;;;;;;;;;;;;1867845;29;7317;-65
2023/03/22 03:46:21;;;;;;;;;;;;;;;;;;1867972;29;7014;-63
2023/03/22 03:47:19;;;;;;;;;;;;;;;;;;1860358;29;7051;-65
2023/03/22 03:48:18;;;;;;;;;;;;;;;;;;1859616;29;7094;-65
2023/03/22 03:49:16;;;;;;;;;;;;;;;;;;1867860;29;7006;-65
2023/03/22 03:50:15;;;;;;;;;;;;;;;;;;1867059;29;7092;-65
2023/03/22 03:51:12;;;;;;;;;;;;;;;;;;1868457;29;7066;-63
2023/03/22 03:52:09;;;;;;;;;;;;;;;;;;1867083;29;7006;-64
2023/03/22 03:53:07;;;;;;;;;;;;;;;;;;1867086;29;7109;-65
2023/03/22 03:54:04;;;;;;;;;;;;;;;;;;1867177;29;7014;-65
2023/03/22 03:55:02;;;;;;;;;;;;;;;;;;1868729;29;7059;-64
2023/03/22 03:55:59;;;;;;;;;;;;;;;;;;1866769;29;7010;-64
2023/03/22 03:56:56;;;;;;;;;;;;;;;;;;1866657;29;7042;-65
2023/03/22 03:57:54;;;;;;;;;;;;;;;;;;1868215;29;8047;-65
2023/03/22 03:58:51;;;;;;;;;;;;;;;;;;1868001;29;8048;-64
2023/03/22 03:59:49;;;;;;;;;;;;;;;;;;1867208;29;7006;-65
2023/03/22 04:00:46;;;;;;;;;;;;;;;;;;1867402;29;8251;-64
2023/03/22 04:01:51;;;;;;;;;;;;;;;;;;1866550;29;7003;-65
2023/03/22 04:02:49;;;;;;;;;;;;;;;;;;1867356;29;8143;-65
2023/03/22 04:03:49;;;;;;;;;;;;;;;;;;1867467;29;7120;-65
2023/03/22 04:04:47;;;;;;;;;;;;;;;;;;1867337;29;7097;-64
2023/03/22 04:05:44;;;;;;;;;;;;;;;;;;1867613;29;7366;-65
2023/03/22 04:06:42;;;;;;;;;;;;;;;;;;1867279;29;7010;-64
2023/03/22 04:07:40;;;;;;;;;;;;;;;;;;1867405;29;7972;-65
2023/03/22 04:08:37;;;;;;;;;;;;;;;;;;1868645;29;8050;-64
2023/03/22 04:09:37;;;;;;;;;;;;;;;;;;1867757;29;8250;-64
2023/03/22 04:10:34;;;;;;;;;;;;;;;;;;1868042;29;7009;-65
2023/03/22 04:11:32;;;;;;;;;;;;;;;;;;1867665;29;7360;-64
2023/03/22 04:12:30;;;;;;;;;;;;;;;;;;1866673;29;7014;-63
2023/03/22 04:13:28;;;;;;;;;;;;;;;;;;1868231;28;8266;-64
2023/03/22 04:14:26;;;;;;;;;;;;;;;;;;1868223;29;7125;-66
2023/03/22 04:15:24;;;;;;;;;;;;;;;;;;1868136;29;7018;-64
2023/03/22 04:16:23;;;;;;;;;;;;;;;;;;1868867;29;7212;-63
2023/03/22 04:17:22;;;;;;;;;;;;;;;;;;1866668;29;7062;-64
2023/03/22 04:18:20;;;;;;;;;;;;;;;;;;1866785;29;8083;-66
2023/03/22 04:19:17;;;;;;;;;;;;;;;;;;1868480;29;7100;-64
2023/03/22 04:20:15;;;;;;;;;;;;;;;;;;1867100;29;7010;-64
2023/03/22 04:21:15;;;;;;;;;;;;;;;;;;1868130;29;8944;-64
2023/03/22 04:22:17;;;;;;;;;;;;;;;;;;1867265;29;7009;-64
2023/03/22 04:23:14;;;;;;;;;;;;;;;;;;1867469;29;7010;-64
2023/03/22 04:24:12;;;;;;;;;;;;;;;;;;1867831;29;7120;-65
2023/03/22 04:25:12;;;;;;;;;;;;;;;;;;1866615;29;7046;-65
2023/03/22 04:26:09;;;;;;;;;;;;;;;;;;1867529;29;7035;-65
2023/03/22 04:27:10;;;;;;;;;;;;;;;;;;1864355;29;7156;-64
2023/03/22 04:28:08;;;;;;;;;;;;;;;;;;1863758;29;8180;-65
2023/03/22 04:29:05;;;;;;;;;;;;;;;;;;1862428;29;7096;-65
2023/03/22 04:30:04;;;;;;;;;;;;;;;;;;1859383;29;8048;-63
2023/03/22 04:31:02;;;;;;;;;;;;;;;;;;1863262;29;7026;-64
2023/03/22 04:31:59;;;;;;;;;;;;;;;;;;1861444;29;7154;-64
2023/03/22 04:32:57;;;;;;;;;;;;;;;;;;1859501;29;7010;-65
2023/03/22 04:33:55;;;;;;;;;;;;;;;;;;1862474;29;7130;-65
2023/03/22 04:34:52;;;;;;;;;;;;;;;;;;1865520;29;8674;-64
2023/03/22 04:35:55;;;;;;;;;;;;;;;;;;1859957;29;7478;-66
2023/03/22 04:36:53;;;;;;;;;;;;;;;;;;1860503;29;8052;-66
2023/03/22 04:37:52;;;;;;;;;;;;;;;;;;1862865;29;7151;-65
2023/03/22 04:38:50;;;;;;;;;;;;;;;;;;1865414;29;7037;-64
2023/03/22 04:39:47;;;;;;;;;;;;;;;;;;1861123;29;7014;-66
2023/03/22 04:40:45;;;;;;;;;;;;;;;;;;1861120;29;7121;-64
2023/03/22 04:41:43;;;;;;;;;;;;;;;;;;1868317;29;7009;-66
2023/03/22 04:42:40;;;;;;;;;;;;;;;;;;1865688;29;7097;-66
2023/03/22 04:43:38;;;;;;;;;;;;;;;;;;1863102;29;7038;-65
2023/03/22 04:44:35;;;;;;;;;;;;;;;;;;1861698;29;7042;-64
2023/03/22 04:45:33;;;;;;;;;;;;;;;;;;1864120;29;7097;-66
2023/03/22 04:46:33;;;;;;;;;;;;;;;;;;1862423;29;7313;-64
2023/03/22 04:47:30;;;;;;;;;;;;;;;;;;1864088;29;7014;-65
2023/03/22 04:48:28;;;;;;;;;;;;;;;;;;1866591;29;8060;-64
2023/03/22 04:49:25;;;;;;;;;;;;;;;;;;1860721;29;7155;-64
2023/03/22 04:50:23;;;;;;;;;;;;;;;;;;1860939;29;7068;-65
2023/03/22 04:51:20;;;;;;;;;;;;;;;;;;1867370;29;7034;-66
2023/03/22 04:52:18;;;;;;;;;;;;;;;;;;1865413;29;7026;-65
2023/03/22 04:53:15;;;;;;;;;;;;;;;;;;1864112;29;8040;-65
2023/03/22 04:54:12;;;;;;;;;;;;;;;;;;1865162;29;8050;-65
2023/03/22 04:55:10;;;;;;;;;;;;;;;;;;1860611;29;8010;-64
2023/03/22 04:56:10;;;;;;;;;;;;;;;;;;1865647;29;7074;-64
2023/03/22 04:57:07;;;;;;;;;;;;;;;;;;1862833;29;8031;-65
2023/03/22 04:58:04;;;;;;;;;;;;;;;;;;1865602;29;7074;-65
2023/03/22 04:59:02;;;;;;;;;;;;;;;;;;1868028;29;7010;-66
2023/03/22 04:59:59;;;;;;;;;;;;;;;;;;1868012;29;7093;-64
2023/03/22 05:00:57;;;;;;;;;;;;;;;;;;1868078;29;7093;-64
2023/03/22 05:01:54;;;;;;;;;;;;;;;;;;1861650;29;7134;-64
2023/03/22 05:02:52;;;;;;;;;;;;;;;;;;1862080;29;7330;-64
2023/03/22 05:03:49;;;;;;;;;;;;;;;;;;1863285;29;7010;-65
2023/03/22 05:04:47;;;;;;;;;;;;;;;;;;1861727;29;7131;-64
2023/03/22 05:05:52;;;;;;;;;;;;;;;;;;1862221;29;7039;-65
2023/03/22 05:06:49;;;;;;;;;;;;;;;;;;1861079;29;7010;-64
2023/03/22 05:07:47;;;;;;;;;;;;;;;;;;1862832;29;7046;-64
2023/03/22 05:08:44;;;;;;;;;;;;;;;;;;1866778;29;8003;-65
2023/03/22 05:09:41;;;;;;;;;;;;;;;;;;1865826;29;8109;-65
2023/03/22 05:10:39;;;;;;;;;;;;;;;;;;1866244;29;7418;-64
2023/03/22 05:11:39;;;;;;;;;;;;;;;;;;1864848;29;8022;-64
2023/03/22 05:12:36;;;;;;;;;;;;;;;;;;1865403;29;7108;-64
2023/03/22 05:13:35;;;;;;;;;;;;;;;;;;1863794;29;7309;-64
2023/03/22 05:14:32;;;;;;;;;;;;;;;;;;1862797;29;7022;-65
2023/03/22 05:15:31;;;;;;;;;;;;;;;;;;1865593;29;7103;-65
2023/03/22 05:16:29;;;;;;;;;;;;;;;;;;1861597;29;8102;-64
2023/03/22 05:17:26;;;;;;;;;;;;;;;;;;1867907;29;8019;-63
2023/03/22 05:18:25;;;;;;;;;;;;;;;;;;1862340;29;7055;-66
2023/03/22 05:19:23;;;;;;;;;;;;;;;;;;1861693;29;7006;-64
2023/03/22 05:20:20;;;;;;;;;;;;;;;;;;1860654;29;7026;-64
2023/03/22 05:21:20;;;;;;;;;;;;;;;;;;1865585;29;7093;-66
2023/03/22 05:22:21;;;;;;;;;;;;;;;;;;1864707;29;7367;-64
2023/03/22 05:23:20;;;;;;;;;;;;;;;;;;1868081;29;7009;-64
2023/03/22 05:24:17;;;;;;;;;;;;;;;;;;1865972;29;7010;-64
2023/03/22 05:25:14;;;;;;;;;;;;;;;;;;1867385;29;7061;-63
2023/03/22 05:26:14;;;;;;;;;;;;;;;;;;1867902;29;7134;-65
2023/03/22 05:27:13;;;;;;;;;;;;;;;;;;1862355;29;8032;-65
2023/03/22 05:28:13;;;;;;;;;;;;;;;;;;1862253;29;7106;-64
2023/03/22 05:29:10;;;;;;;;;;;;;;;;;;1859471;29;7084;-65
2023/03/22 05:30:08;;;;;;;;;;;;;;;;;;1860247;29;7030;-65
2023/03/22 05:31:07;;;;;;;;;;;;;;;;;;1860337;29;7110;-64
2023/03/22 05:32:05;;;;;;;;;;;;;;;;;;1866878;29;7136;-64
2023/03/22 05:33:03;;;;;;;;;;;;;;;;;;1867734;29;7121;-65
2023/03/22 05:34:01;;;;;;;;;;;;;;;;;;1866762;29;7266;-63
2023/03/22 05:35:03;;;;;;;;;;;;;;;;;;1861233;29;8997;-64
2023/03/22 05:36:00;;;;;;;;;;;;;;;;;;1863785;29;7011;-64
2023/03/22 05:36:59;;;;;;;;;;;;;;;;;;1866995;29;8016;-64
2023/03/22 05:37:57;;;;;;;;;;;;;;;;;;1863102;29;7006;-63
2023/03/22 05:38:55;;;;;;;;;;;;;;;;;;1866015;29;7093;-64
2023/03/22 05:39:52;;;;;;;;;;;;;;;;;;1866892;29;7127;-64
2023/03/22 05:40:50;;;;;;;;;;;;;;;;;;1863013;29;7006;-66
2023/03/22 05:41:47;;;;;;;;;;;;;;;;;;1862903;29;7514;-64
2023/03/22 05:42:44;;;;;;;;;;;;;;;;;;1864172;29;7010;-64
2023/03/22 05:43:42;;;;;;;;;;;;;;;;;;1863833;29;7255;-64
2023/03/22 05:44:39;;;;;;;;;;;;;;;;;;1862086;29;7101;-66
2023/03/22 05:45:36;;;;;;;;;;;;;;;;;;1865577;29;7014;-63
2023/03/22 05:46:34;;;;;;;;;;;;;;;;;;1867409;29;7135;-66
2023/03/22 05:47:31;;;;;;;;;;;;;;;;;;1864678;29;7002;-65
2023/03/22 05:48:29;;;;;;;;;;;;;;;;;;1863997;29;7093;-65
2023/03/22 05:49:26;;;;;;;;;;;;;;;;;;1861567;29;7240;-65
2023/03/22 05:50:24;;;;;;;;;;;;;;;;;;1860327;29;8035;-66
2023/03/22 05:51:24;;;;;;;;;;;;;;;;;;1863759;29;7006;-63
2023/03/22 05:52:22;;;;;;;;;;;;;;;;;;1866618;29;7093;-64
2023/03/22 05:53:19;;;;;;;;;;;;;;;;;;1863189;29;7092;-64
2023/03/22 05:54:16;;;;;;;;;;;;;;;;;;1865518;29;7010;-64
2023/03/22 05:55:18;;;;;;;;;;;;;;;;;;1861712;29;8000;-65
2023/03/22 05:56:15;;;;;;;;;;;;;;;;;;1863373;29;7051;-64
2023/03/22 05:57:13;;;;;;;;;;;;;;;;;;1859789;29;7246;-65
2023/03/22 05:58:10;;;;;;;;;;;;;;;;;;1862313;29;7080;-64
2023/03/22 05:59:08;;;;;;;;;;;;;;;;;;1860417;29;7007;-65
2023/03/22 06:00:12;;;;;;;;;;;;;;;;;;1865714;29;7266;-66
2023/03/22 06:01:10;;;;;;;;;;;;;;;;;;1867334;29;8104;-65
2023/03/22 06:02:08;;;;;;;;;;;;;;;;;;1862260;29;7037;-64
2023/03/22 06:03:05;;;;;;;;;;;;;;;;;;1867338;29;7113;-64
2023/03/22 06:04:03;;;;;;;;;;;;;;;;;;1868008;29;8052;-64
2023/03/22 06:05:00;;;;;;;;;;;;;;;;;;1858463;29;7129;-65
2023/03/22 06:05:57;;;;;;;;;;;;;;;;;;1853374;29;7097;-64
2023/03/22 06:06:55;;;;;;;;;;;;;;;;;;1865346;29;7129;-64
2023/03/22 06:07:52;;;;;;;;;;;;;;;;;;1865354;29;7042;-64
2023/03/22 06:08:49;;;;;;;;;;;;;;;;;;1867315;29;8044;-65
2023/03/22 06:09:48;;;;;;;;;;;;;;;;;;1864899;29;7219;-64
2023/03/22 06:10:50;;;;;;;;;;;;;;;;;;1860572;29;7146;-65
2023/03/22 06:11:47;;;;;;;;;;;;;;;;;;1859653;29;7089;-65
2023/03/22 06:12:44;;;;;;;;;;;;;;;;;;1859189;29;7259;-64
2023/03/22 06:13:42;;;;;;;;;;;;;;;;;;1861845;29;7936;-66
2023/03/22 06:14:39;;;;;;;;;;;;;;;;;;1863037;29;7224;-65
2023/03/22 06:15:36;;;;;;;;;;;;;;;;;;1863780;29;7025;-66
2023/03/22 06:16:34;;;;;;;;;;;;;;;;;;1860137;29;7006;-64
2023/03/22 06:17:31;;;;;;;;;;;;;;;;;;1862666;29;8057;-64
2023/03/22 06:18:29;;;;;;;;;;;;;;;;;;1867372;29;7006;-63
2023/03/22 06:19:27;;;;;;;;;;;;;;;;;;1867776;29;7010;-63
2023/03/22 06:20:24;;;;;;;;;;;;;;;;;;1865700;29;7302;-64
2023/03/22 06:21:21;;;;;;;;;;;;;;;;;;1867768;29;7002;-64
2023/03/22 06:22:19;;;;;;;;;;;;;;;;;;1863972;29;7022;-64
2023/03/22 06:23:17;;;;;;;;;;;;;;;;;;1867390;29;7097;-65
2023/03/22 06:24:14;;;;;;;;;;;;;;;;;;1868932;29;7047;-65
2023/03/22 06:25:13;;;;;;;;;;;;;;;;;;1864510;29;7013;-64
2023/03/22 06:26:10;;;;;;;;;;;;;;;;;;1865179;29;7026;-64
2023/03/22 06:27:08;;;;;;;;;;;;;;;;;;1861611;29;7157;-65
2023/03/22 06:28:06;;;;;;;;;;;;;;;;;;1867555;29;7092;-64
2023/03/22 06:29:05;;;;;;;;;;;;;;;;;;1869050;29;7014;-65
2023/03/22 06:30:02;;;;;;;;;;;;;;;;;;1869270;29;7092;-64
2023/03/22 06:31:04;;;;;;;;;;;;;;;;;;1867699;29;8067;-65
2023/03/22 06:32:02;;;;;;;;;;;;;;;;;;1869226;29;7122;-65
2023/03/22 06:33:03;;;;;;;;;;;;;;;;;;1864348;29;7992;-66
2023/03/22 06:34:01;;;;;;;;;;;;;;;;;;1863802;29;7221;-65
2023/03/22 06:34:58;;;;;;;;;;;;;;;;;;1861709;29;7135;-64
2023/03/22 06:35:57;;;;;;;;;;;;;;;;;;1861749;29;8075;-64
2023/03/22 06:36:55;;;;;;;;;;;;;;;;;;1865601;29;7241;-66
2023/03/22 06:37:54;;;;;;;;;;;;;;;;;;1861497;29;7136;-64
2023/03/22 06:38:52;;;;;;;;;;;;;;;;;;1868909;29;7999;-65
2023/03/22 06:39:51;;;;;;;;;;;;;;;;;;1867706;29;7109;-64
2023/03/22 06:40:48;;;;;;;;;;;;;;;;;;1862298;29;7129;-66
2023/03/22 06:41:46;;;;;;;;;;;;;;;;;;1863956;29;7002;-66
2023/03/22 06:42:43;;;;;;;;;;;;;;;;;;1864696;29;7046;-64
2023/03/22 06:43:40;;;;;;;;;;;;;;;;;;1866104;29;8156;-65
2023/03/22 06:44:41;;;;;;;;;;;;;;;;;;1860191;29;7097;-65
2023/03/22 06:45:38;;;;;;;;;;;;;;;;;;1861515;29;7047;-65
2023/03/22 06:46:35;;;;;;;;;;;;;;;;;;1863004;29;7097;-65
2023/03/22 06:47:33;;;;;;;;;;;;;;;;;;1863734;29;7149;-64
2023/03/22 06:48:30;;;;;;;;;;;;;;;;;;1864820;29;7009;-64
2023/03/22 06:49:27;;;;;;;;;;;;;;;;;;1861533;29;7014;-65
2023/03/22 06:50:25;;;;;;;;;;;;;;;;;;1861437;29;7185;-64
2023/03/22 06:51:23;;;;;;;;;;;;;;;;;;1862220;29;7010;-65
2023/03/22 06:52:20;;;;;;;;;;;;;;;;;;1864534;29;7157;-64
2023/03/22 06:53:17;;;;;;;;;;;;;;;;;;1866584;29;8447;-65